sensor_id;sensor_type;location;lat;lon;timestamp;P1;durP1;ratioP1;P2;durP2;ratioP2
12469;SDS011;36499;46.484;13.832;2023-11-19T00:02:20;11.27;;;6.90;;
12469;SDS011;36499;46.484;13.832;2023-11-19T00:04:46;10.20;;;6.13;;
12469;SDS011;36499;46.484;13.832;2023-11-19T00:07:13;11.60;;;6.50;;
12469;SDS011;36499;46.484;13.832;2023-11-19T00:09:40;12.63;;;6.83;;
12469;SDS011;36499;46.484;13.832;2023-11-19T00:12:08;11.43;;;7.53;;
12469;SDS011;36499;46.484;13.832;2023-11-19T00:14:35;9.40;;;5.63;;
12469;SDS011;36499;46.484;13.832;2023-11-19T00:17:02;9.57;;;5.60;;
12469;SDS011;36499;46.484;13.832;2023-11-19T00:19:31;11.33;;;6.00;;
12469;SDS011;36499;46.484;13.832;2023-11-19T00:21:58;12.73;;;7.70;;
12469;SDS011;36499;46.484;13.832;2023-11-19T00:24:28;11.47;;;6.47;;
12469;SDS011;36499;46.484;13.832;2023-11-19T00:26:55;12.37;;;7.07;;
12469;SDS011;36499;46.484;13.832;2023-11-19T00:29:22;10.97;;;6.00;;
12469;SDS011;36499;46.484;13.832;2023-11-19T00:31:49;14.13;;;7.57;;
12469;SDS011;36499;46.484;13.832;2023-11-19T00:34:15;10.83;;;6.17;;
12469;SDS011;36499;46.484;13.832;2023-11-19T00:36:47;12.53;;;6.10;;
12469;SDS011;36499;46.484;13.832;2023-11-19T00:39:14;9.83;;;5.53;;
12469;SDS011;36499;46.484;13.832;2023-11-19T00:41:41;8.60;;;5.33;;
12469;SDS011;36499;46.484;13.832;2023-11-19T00:44:08;9.93;;;5.90;;
12469;SDS011;36499;46.484;13.832;2023-11-19T00:46:35;10.20;;;5.97;;
12469;SDS011;36499;46.484;13.832;2023-11-19T00:49:01;10.43;;;5.70;;
12469;SDS011;36499;46.484;13.832;2023-11-19T00:51:28;11.57;;;6.40;;
12469;SDS011;36499;46.484;13.832;2023-11-19T00:53:57;16.23;;;7.57;;
12469;SDS011;36499;46.484;13.832;2023-11-19T00:56:26;19.07;;;7.20;;
12469;SDS011;36499;46.484;13.832;2023-11-19T00:58:53;12.63;;;5.97;;
12469;SDS011;36499;46.484;13.832;2023-11-19T01:01:21;16.90;;;6.97;;
12469;SDS011;36499;46.484;13.832;2023-11-19T01:03:47;11.33;;;5.67;;
12469;SDS011;36499;46.484;13.832;2023-11-19T01:06:14;10.13;;;5.43;;
12469;SDS011;36499;46.484;13.832;2023-11-19T01:08:42;11.30;;;6.03;;
12469;SDS011;36499;46.484;13.832;2023-11-19T01:11:16;10.27;;;5.90;;
12469;SDS011;36499;46.484;13.832;2023-11-19T01:13:46;10.67;;;4.80;;
12469;SDS011;36499;46.484;13.832;2023-11-19T01:16:13;9.77;;;4.83;;
12469;SDS011;36499;46.484;13.832;2023-11-19T01:18:40;8.87;;;4.73;;
12469;SDS011;36499;46.484;13.832;2023-11-19T01:21:07;8.27;;;5.00;;
12469;SDS011;36499;46.484;13.832;2023-11-19T01:23:34;7.60;;;4.77;;
12469;SDS011;36499;46.484;13.832;2023-11-19T01:26:00;12.17;;;4.80;;
12469;SDS011;36499;46.484;13.832;2023-11-19T01:28:28;8.60;;;5.17;;
12469;SDS011;36499;46.484;13.832;2023-11-19T01:30:56;9.33;;;5.30;;
12469;SDS011;36499;46.484;13.832;2023-11-19T01:33:22;11.03;;;5.17;;
12469;SDS011;36499;46.484;13.832;2023-11-19T01:35:50;10.37;;;5.93;;
12469;SDS011;36499;46.484;13.832;2023-11-19T01:38:17;9.57;;;4.87;;
12469;SDS011;36499;46.484;13.832;2023-11-19T01:40:43;7.07;;;4.47;;
12469;SDS011;36499;46.484;13.832;2023-11-19T01:43:10;12.13;;;4.57;;
12469;SDS011;36499;46.484;13.832;2023-11-19T01:45:40;8.20;;;4.53;;
12469;SDS011;36499;46.484;13.832;2023-11-19T01:48:07;13.80;;;5.83;;
12469;SDS011;36499;46.484;13.832;2023-11-19T01:50:36;10.27;;;5.73;;
12469;SDS011;36499;46.484;13.832;2023-11-19T01:53:03;10.23;;;6.17;;
12469;SDS011;36499;46.484;13.832;2023-11-19T01:55:30;12.93;;;4.83;;
12469;SDS011;36499;46.484;13.832;2023-11-19T01:57:59;17.77;;;7.37;;
12469;SDS011;36499;46.484;13.832;2023-11-19T02:00:27;6.53;;;4.77;;
12469;SDS011;36499;46.484;13.832;2023-11-19T02:02:55;6.83;;;4.43;;
12469;SDS011;36499;46.484;13.832;2023-11-19T02:05:23;7.47;;;4.60;;
12469;SDS011;36499;46.484;13.832;2023-11-19T02:07:49;8.47;;;4.30;;
12469;SDS011;36499;46.484;13.832;2023-11-19T02:10:16;7.10;;;4.20;;
12469;SDS011;36499;46.484;13.832;2023-11-19T02:12:44;8.60;;;4.37;;
12469;SDS011;36499;46.484;13.832;2023-11-19T02:15:12;6.07;;;3.33;;
12469;SDS011;36499;46.484;13.832;2023-11-19T02:17:38;7.93;;;4.37;;
12469;SDS011;36499;46.484;13.832;2023-11-19T02:20:07;6.63;;;4.57;;
12469;SDS011;36499;46.484;13.832;2023-11-19T02:22:37;7.60;;;3.63;;
12469;SDS011;36499;46.484;13.832;2023-11-19T02:25:04;6.67;;;3.97;;
12469;SDS011;36499;46.484;13.832;2023-11-19T02:30:22;6.73;;;3.70;;
12469;SDS011;36499;46.484;13.832;2023-11-19T02:32:52;6.30;;;4.10;;
12469;SDS011;36499;46.484;13.832;2023-11-19T02:35:19;5.83;;;4.00;;
12469;SDS011;36499;46.484;13.832;2023-11-19T02:37:46;6.20;;;4.13;;
12469;SDS011;36499;46.484;13.832;2023-11-19T02:40:13;6.60;;;3.60;;
12469;SDS011;36499;46.484;13.832;2023-11-19T02:42:40;5.07;;;3.70;;
12469;SDS011;36499;46.484;13.832;2023-11-19T02:45:09;6.63;;;3.67;;
12469;SDS011;36499;46.484;13.832;2023-11-19T02:47:39;9.83;;;3.60;;
12469;SDS011;36499;46.484;13.832;2023-11-19T02:50:07;6.60;;;3.77;;
12469;SDS011;36499;46.484;13.832;2023-11-19T02:52:39;7.43;;;4.70;;
12469;SDS011;36499;46.484;13.832;2023-11-19T02:55:06;8.80;;;5.57;;
12469;SDS011;36499;46.484;13.832;2023-11-19T02:57:37;12.13;;;8.37;;
12469;SDS011;36499;46.484;13.832;2023-11-19T03:00:05;7.70;;;4.47;;
12469;SDS011;36499;46.484;13.832;2023-11-19T03:02:39;9.27;;;5.93;;
12469;SDS011;36499;46.484;13.832;2023-11-19T03:05:10;10.40;;;6.27;;
12469;SDS011;36499;46.484;13.832;2023-11-19T03:07:39;9.37;;;4.37;;
12469;SDS011;36499;46.484;13.832;2023-11-19T03:10:08;6.97;;;3.80;;
12469;SDS011;36499;46.484;13.832;2023-11-19T03:12:37;5.90;;;3.90;;
12469;SDS011;36499;46.484;13.832;2023-11-19T03:15:05;9.67;;;4.87;;
12469;SDS011;36499;46.484;13.832;2023-11-19T03:17:34;5.40;;;3.80;;
12469;SDS011;36499;46.484;13.832;2023-11-19T03:20:03;7.33;;;4.13;;
12469;SDS011;36499;46.484;13.832;2023-11-19T03:22:32;7.40;;;3.80;;
12469;SDS011;36499;46.484;13.832;2023-11-19T03:25:00;5.10;;;2.83;;
12469;SDS011;36499;46.484;13.832;2023-11-19T03:27:26;5.63;;;3.63;;
12469;SDS011;36499;46.484;13.832;2023-11-19T03:29:53;5.37;;;3.87;;
12469;SDS011;36499;46.484;13.832;2023-11-19T03:32:20;6.37;;;3.70;;
12469;SDS011;36499;46.484;13.832;2023-11-19T03:34:47;6.50;;;3.90;;
12469;SDS011;36499;46.484;13.832;2023-11-19T03:37:15;5.20;;;3.40;;
12469;SDS011;36499;46.484;13.832;2023-11-19T03:39:42;7.73;;;4.23;;
12469;SDS011;36499;46.484;13.832;2023-11-19T03:42:09;6.37;;;3.73;;
12469;SDS011;36499;46.484;13.832;2023-11-19T03:44:38;5.43;;;3.43;;
12469;SDS011;36499;46.484;13.832;2023-11-19T03:47:05;5.47;;;3.80;;
12469;SDS011;36499;46.484;13.832;2023-11-19T03:49:32;7.17;;;3.30;;
12469;SDS011;36499;46.484;13.832;2023-11-19T03:51:59;6.03;;;3.53;;
12469;SDS011;36499;46.484;13.832;2023-11-19T03:54:27;6.40;;;3.57;;
12469;SDS011;36499;46.484;13.832;2023-11-19T03:56:54;5.67;;;3.53;;
12469;SDS011;36499;46.484;13.832;2023-11-19T03:59:21;9.77;;;4.37;;
12469;SDS011;36499;46.484;13.832;2023-11-19T04:01:47;5.80;;;3.40;;
12469;SDS011;36499;46.484;13.832;2023-11-19T04:04:14;5.67;;;4.07;;
12469;SDS011;36499;46.484;13.832;2023-11-19T04:06:41;6.30;;;3.37;;
12469;SDS011;36499;46.484;13.832;2023-11-19T04:09:07;8.40;;;3.97;;
12469;SDS011;36499;46.484;13.832;2023-11-19T04:11:36;7.23;;;3.70;;
12469;SDS011;36499;46.484;13.832;2023-11-19T04:14:05;8.00;;;3.87;;
12469;SDS011;36499;46.484;13.832;2023-11-19T04:16:31;5.93;;;3.90;;
12469;SDS011;36499;46.484;13.832;2023-11-19T04:18:58;7.43;;;4.30;;
12469;SDS011;36499;46.484;13.832;2023-11-19T04:21:25;7.10;;;4.30;;
12469;SDS011;36499;46.484;13.832;2023-11-19T04:23:52;5.53;;;3.63;;
12469;SDS011;36499;46.484;13.832;2023-11-19T04:26:18;6.63;;;3.40;;
12469;SDS011;36499;46.484;13.832;2023-11-19T04:28:47;9.23;;;3.90;;
12469;SDS011;36499;46.484;13.832;2023-11-19T04:31:14;6.47;;;3.23;;
12469;SDS011;36499;46.484;13.832;2023-11-19T04:33:41;4.63;;;3.13;;
12469;SDS011;36499;46.484;13.832;2023-11-19T04:36:08;4.67;;;3.07;;
12469;SDS011;36499;46.484;13.832;2023-11-19T04:38:36;4.80;;;3.30;;
12469;SDS011;36499;46.484;13.832;2023-11-19T04:41:03;6.67;;;2.90;;
12469;SDS011;36499;46.484;13.832;2023-11-19T04:43:31;6.20;;;3.10;;
12469;SDS011;36499;46.484;13.832;2023-11-19T04:45:59;6.00;;;3.23;;
12469;SDS011;36499;46.484;13.832;2023-11-19T04:48:26;7.47;;;3.93;;
12469;SDS011;36499;46.484;13.832;2023-11-19T04:50:53;8.10;;;4.10;;
12469;SDS011;36499;46.484;13.832;2023-11-19T04:53:19;9.30;;;3.23;;
12469;SDS011;36499;46.484;13.832;2023-11-19T04:55:46;4.03;;;2.67;;
12469;SDS011;36499;46.484;13.832;2023-11-19T04:58:13;3.30;;;2.67;;
12469;SDS011;36499;46.484;13.832;2023-11-19T05:00:40;4.67;;;2.60;;
12469;SDS011;36499;46.484;13.832;2023-11-19T05:03:08;4.57;;;3.23;;
12469;SDS011;36499;46.484;13.832;2023-11-19T05:05:35;10.13;;;5.10;;
12469;SDS011;36499;46.484;13.832;2023-11-19T05:08:02;7.30;;;4.63;;
12469;SDS011;36499;46.484;13.832;2023-11-19T05:10:28;6.77;;;4.00;;
12469;SDS011;36499;46.484;13.832;2023-11-19T05:12:55;8.57;;;4.53;;
12469;SDS011;36499;46.484;13.832;2023-11-19T05:15:22;9.90;;;6.63;;
12469;SDS011;36499;46.484;13.832;2023-11-19T05:17:49;8.07;;;5.23;;
12469;SDS011;36499;46.484;13.832;2023-11-19T05:20:17;25.63;;;15.20;;
12469;SDS011;36499;46.484;13.832;2023-11-19T05:22:44;35.17;;;23.17;;
12469;SDS011;36499;46.484;13.832;2023-11-19T05:25:11;21.10;;;13.40;;
12469;SDS011;36499;46.484;13.832;2023-11-19T05:27:38;4.80;;;3.20;;
12469;SDS011;36499;46.484;13.832;2023-11-19T05:30:05;4.13;;;2.90;;
12469;SDS011;36499;46.484;13.832;2023-11-19T05:32:33;5.97;;;3.13;;
12469;SDS011;36499;46.484;13.832;2023-11-19T05:35:00;7.33;;;4.47;;
12469;SDS011;36499;46.484;13.832;2023-11-19T05:37:28;8.17;;;4.70;;
12469;SDS011;36499;46.484;13.832;2023-11-19T05:39:55;8.30;;;5.23;;
12469;SDS011;36499;46.484;13.832;2023-11-19T05:42:21;14.30;;;9.40;;
12469;SDS011;36499;46.484;13.832;2023-11-19T05:44:49;21.53;;;12.50;;
12469;SDS011;36499;46.484;13.832;2023-11-19T05:47:17;13.63;;;7.80;;
12469;SDS011;36499;46.484;13.832;2023-11-19T05:49:43;9.57;;;6.10;;
12469;SDS011;36499;46.484;13.832;2023-11-19T05:52:10;6.57;;;4.20;;
12469;SDS011;36499;46.484;13.832;2023-11-19T05:54:38;8.07;;;4.10;;
12469;SDS011;36499;46.484;13.832;2023-11-19T05:57:06;6.43;;;3.50;;
12469;SDS011;36499;46.484;13.832;2023-11-19T05:59:34;5.40;;;3.23;;
12469;SDS011;36499;46.484;13.832;2023-11-19T06:02:01;4.17;;;2.93;;
12469;SDS011;36499;46.484;13.832;2023-11-19T06:04:28;5.17;;;3.10;;
12469;SDS011;36499;46.484;13.832;2023-11-19T06:06:55;4.70;;;3.00;;
12469;SDS011;36499;46.484;13.832;2023-11-19T06:09:21;9.73;;;5.87;;
12469;SDS011;36499;46.484;13.832;2023-11-19T06:11:50;6.73;;;4.23;;
12469;SDS011;36499;46.484;13.832;2023-11-19T06:14:17;10.40;;;4.57;;
12469;SDS011;36499;46.484;13.832;2023-11-19T06:16:44;5.83;;;3.63;;
12469;SDS011;36499;46.484;13.832;2023-11-19T06:19:11;7.90;;;5.70;;
12469;SDS011;36499;46.484;13.832;2023-11-19T06:21:38;15.50;;;7.33;;
12469;SDS011;36499;46.484;13.832;2023-11-19T06:24:05;17.13;;;7.00;;
12469;SDS011;36499;46.484;13.832;2023-11-19T06:26:32;9.93;;;5.10;;
12469;SDS011;36499;46.484;13.832;2023-11-19T06:29:00;6.23;;;4.00;;
12469;SDS011;36499;46.484;13.832;2023-11-19T06:31:27;8.13;;;3.73;;
12469;SDS011;36499;46.484;13.832;2023-11-19T06:33:53;4.80;;;3.47;;
12469;SDS011;36499;46.484;13.832;2023-11-19T06:36:20;5.63;;;3.40;;
12469;SDS011;36499;46.484;13.832;2023-11-19T06:38:47;4.67;;;3.30;;
12469;SDS011;36499;46.484;13.832;2023-11-19T06:41:14;5.43;;;3.07;;
12469;SDS011;36499;46.484;13.832;2023-11-19T06:43:41;6.00;;;3.37;;
12469;SDS011;36499;46.484;13.832;2023-11-19T06:46:15;4.10;;;3.20;;
12469;SDS011;36499;46.484;13.832;2023-11-19T06:48:43;6.50;;;3.60;;
12469;SDS011;36499;46.484;13.832;2023-11-19T06:51:10;7.67;;;4.00;;
12469;SDS011;36499;46.484;13.832;2023-11-19T06:53:37;5.57;;;3.40;;
12469;SDS011;36499;46.484;13.832;2023-11-19T06:56:05;4.87;;;3.00;;
12469;SDS011;36499;46.484;13.832;2023-11-19T06:58:35;4.63;;;3.23;;
12469;SDS011;36499;46.484;13.832;2023-11-19T07:01:06;6.17;;;3.00;;
12469;SDS011;36499;46.484;13.832;2023-11-19T07:03:36;6.27;;;2.90;;
12469;SDS011;36499;46.484;13.832;2023-11-19T07:06:02;4.83;;;3.20;;
12469;SDS011;36499;46.484;13.832;2023-11-19T07:08:30;7.60;;;4.37;;
12469;SDS011;36499;46.484;13.832;2023-11-19T07:10:57;7.30;;;3.83;;
12469;SDS011;36499;46.484;13.832;2023-11-19T07:13:24;9.13;;;4.00;;
12469;SDS011;36499;46.484;13.832;2023-11-19T07:15:53;5.17;;;3.60;;
12469;SDS011;36499;46.484;13.832;2023-11-19T07:18:19;4.60;;;3.47;;
12469;SDS011;36499;46.484;13.832;2023-11-19T07:20:48;6.27;;;3.70;;
12469;SDS011;36499;46.484;13.832;2023-11-19T07:23:15;8.37;;;3.80;;
12469;SDS011;36499;46.484;13.832;2023-11-19T07:25:42;7.10;;;3.30;;
12469;SDS011;36499;46.484;13.832;2023-11-19T07:28:10;4.37;;;2.90;;
12469;SDS011;36499;46.484;13.832;2023-11-19T07:30:37;3.60;;;2.60;;
12469;SDS011;36499;46.484;13.832;2023-11-19T07:33:04;5.60;;;3.63;;
12469;SDS011;36499;46.484;13.832;2023-11-19T07:35:31;8.50;;;5.27;;
12469;SDS011;36499;46.484;13.832;2023-11-19T07:37:59;6.47;;;4.60;;
12469;SDS011;36499;46.484;13.832;2023-11-19T07:40:26;6.20;;;4.50;;
12469;SDS011;36499;46.484;13.832;2023-11-19T07:42:53;6.37;;;3.70;;
12469;SDS011;36499;46.484;13.832;2023-11-19T07:45:20;4.00;;;3.17;;
12469;SDS011;36499;46.484;13.832;2023-11-19T07:47:47;4.30;;;2.90;;
12469;SDS011;36499;46.484;13.832;2023-11-19T07:50:13;7.43;;;4.00;;
12469;SDS011;36499;46.484;13.832;2023-11-19T07:52:42;6.50;;;3.73;;
12469;SDS011;36499;46.484;13.832;2023-11-19T07:55:10;6.70;;;4.07;;
12469;SDS011;36499;46.484;13.832;2023-11-19T07:57:37;8.73;;;4.37;;
12469;SDS011;36499;46.484;13.832;2023-11-19T08:00:04;7.07;;;4.57;;
12469;SDS011;36499;46.484;13.832;2023-11-19T08:02:32;6.00;;;3.83;;
12469;SDS011;36499;46.484;13.832;2023-11-19T08:04:59;8.53;;;4.13;;
12469;SDS011;36499;46.484;13.832;2023-11-19T08:07:25;6.87;;;4.27;;
12469;SDS011;36499;46.484;13.832;2023-11-19T08:09:52;11.93;;;5.30;;
12469;SDS011;36499;46.484;13.832;2023-11-19T08:12:20;9.37;;;5.10;;
12469;SDS011;36499;46.484;13.832;2023-11-19T08:14:47;8.13;;;4.53;;
12469;SDS011;36499;46.484;13.832;2023-11-19T08:17:14;5.33;;;3.47;;
12469;SDS011;36499;46.484;13.832;2023-11-19T08:19:41;7.27;;;3.30;;
12469;SDS011;36499;46.484;13.832;2023-11-19T08:22:08;6.10;;;3.30;;
12469;SDS011;36499;46.484;13.832;2023-11-19T08:24:35;7.57;;;4.07;;
12469;SDS011;36499;46.484;13.832;2023-11-19T08:27:01;10.53;;;4.50;;
12469;SDS011;36499;46.484;13.832;2023-11-19T08:29:30;6.37;;;4.00;;
12469;SDS011;36499;46.484;13.832;2023-11-19T08:31:56;5.23;;;2.90;;
12469;SDS011;36499;46.484;13.832;2023-11-19T08:34:23;4.40;;;2.77;;
12469;SDS011;36499;46.484;13.832;2023-11-19T08:36:51;5.10;;;2.93;;
12469;SDS011;36499;46.484;13.832;2023-11-19T08:39:18;3.23;;;2.73;;
12469;SDS011;36499;46.484;13.832;2023-11-19T08:41:46;5.47;;;2.73;;
12469;SDS011;36499;46.484;13.832;2023-11-19T08:44:13;4.40;;;3.13;;
12469;SDS011;36499;46.484;13.832;2023-11-19T08:46:47;5.43;;;3.20;;
12469;SDS011;36499;46.484;13.832;2023-11-19T08:49:14;4.60;;;3.03;;
12469;SDS011;36499;46.484;13.832;2023-11-19T08:51:40;5.40;;;3.07;;
12469;SDS011;36499;46.484;13.832;2023-11-19T08:54:08;9.83;;;3.10;;
12469;SDS011;36499;46.484;13.832;2023-11-19T08:56:35;4.10;;;2.63;;
12469;SDS011;36499;46.484;13.832;2023-11-19T08:59:04;6.00;;;2.60;;
12469;SDS011;36499;46.484;13.832;2023-11-19T09:01:31;5.83;;;2.30;;
12469;SDS011;36499;46.484;13.832;2023-11-19T09:03:59;4.50;;;2.03;;
12469;SDS011;36499;46.484;13.832;2023-11-19T09:06:25;2.13;;;1.60;;
12469;SDS011;36499;46.484;13.832;2023-11-19T09:08:52;3.83;;;2.10;;
12469;SDS011;36499;46.484;13.832;2023-11-19T09:11:23;2.40;;;1.83;;
12469;SDS011;36499;46.484;13.832;2023-11-19T09:13:50;3.00;;;1.97;;
12469;SDS011;36499;46.484;13.832;2023-11-19T09:16:17;2.77;;;2.30;;
12469;SDS011;36499;46.484;13.832;2023-11-19T09:18:43;5.33;;;2.80;;
12469;SDS011;36499;46.484;13.832;2023-11-19T09:21:11;2.77;;;2.13;;
12469;SDS011;36499;46.484;13.832;2023-11-19T09:23:38;2.57;;;2.07;;
12469;SDS011;36499;46.484;13.832;2023-11-19T09:26:05;1.97;;;1.50;;
12469;SDS011;36499;46.484;13.832;2023-11-19T09:28:35;1.60;;;1.40;;
12469;SDS011;36499;46.484;13.832;2023-11-19T09:31:01;2.40;;;1.73;;
12469;SDS011;36499;46.484;13.832;2023-11-19T09:33:29;2.70;;;1.57;;
12469;SDS011;36499;46.484;13.832;2023-11-19T09:35:56;1.93;;;1.40;;
12469;SDS011;36499;46.484;13.832;2023-11-19T09:38:25;2.47;;;1.40;;
12469;SDS011;36499;46.484;13.832;2023-11-19T09:40:52;1.20;;;1.07;;
12469;SDS011;36499;46.484;13.832;2023-11-19T09:43:19;1.50;;;1.23;;
12469;SDS011;36499;46.484;13.832;2023-11-19T09:45:47;4.07;;;1.90;;
12469;SDS011;36499;46.484;13.832;2023-11-19T09:48:16;1.20;;;1.00;;
12469;SDS011;36499;46.484;13.832;2023-11-19T09:50:43;2.40;;;1.07;;
12469;SDS011;36499;46.484;13.832;2023-11-19T09:53:10;1.83;;;1.27;;
12469;SDS011;36499;46.484;13.832;2023-11-19T09:55:39;3.13;;;1.10;;
12469;SDS011;36499;46.484;13.832;2023-11-19T09:58:06;1.43;;;1.27;;
12469;SDS011;36499;46.484;13.832;2023-11-19T10:00:33;5.90;;;1.70;;
12469;SDS011;36499;46.484;13.832;2023-11-19T10:03:00;3.20;;;2.17;;
12469;SDS011;36499;46.484;13.832;2023-11-19T10:05:30;3.40;;;2.40;;
12469;SDS011;36499;46.484;13.832;2023-11-19T10:07:57;3.97;;;2.70;;
12469;SDS011;36499;46.484;13.832;2023-11-19T10:10:24;2.63;;;2.03;;
12469;SDS011;36499;46.484;13.832;2023-11-19T10:12:52;4.13;;;2.53;;
12469;SDS011;36499;46.484;13.832;2023-11-19T10:15:21;5.03;;;3.73;;
12469;SDS011;36499;46.484;13.832;2023-11-19T10:17:49;6.23;;;3.73;;
12469;SDS011;36499;46.484;13.832;2023-11-19T10:20:16;2.50;;;2.00;;
12469;SDS011;36499;46.484;13.832;2023-11-19T10:22:45;3.17;;;2.60;;
12469;SDS011;36499;46.484;13.832;2023-11-19T10:25:24;4.60;;;2.73;;
12469;SDS011;36499;46.484;13.832;2023-11-19T10:27:53;2.53;;;2.20;;
12469;SDS011;36499;46.484;13.832;2023-11-19T10:30:21;2.90;;;2.37;;
12469;SDS011;36499;46.484;13.832;2023-11-19T10:33:04;2.60;;;2.20;;
12469;SDS011;36499;46.484;13.832;2023-11-19T10:35:32;4.77;;;3.47;;
12469;SDS011;36499;46.484;13.832;2023-11-19T10:38:00;3.00;;;2.67;;
12469;SDS011;36499;46.484;13.832;2023-11-19T10:40:39;3.03;;;2.17;;
12469;SDS011;36499;46.484;13.832;2023-11-19T10:43:08;2.50;;;2.03;;
12469;SDS011;36499;46.484;13.832;2023-11-19T10:45:35;2.37;;;1.90;;
12469;SDS011;36499;46.484;13.832;2023-11-19T10:48:03;7.57;;;5.10;;
12469;SDS011;36499;46.484;13.832;2023-11-19T10:50:32;4.37;;;3.57;;
12469;SDS011;36499;46.484;13.832;2023-11-19T10:53:00;3.10;;;1.70;;
12469;SDS011;36499;46.484;13.832;2023-11-19T10:55:27;2.77;;;2.00;;
12469;SDS011;36499;46.484;13.832;2023-11-19T10:57:58;2.20;;;1.60;;
12469;SDS011;36499;46.484;13.832;2023-11-19T11:00:29;2.60;;;1.83;;
12469;SDS011;36499;46.484;13.832;2023-11-19T11:03:00;4.27;;;2.47;;
12469;SDS011;36499;46.484;13.832;2023-11-19T11:05:28;2.53;;;1.60;;
12469;SDS011;36499;46.484;13.832;2023-11-19T11:07:58;5.53;;;2.93;;
12469;SDS011;36499;46.484;13.832;2023-11-19T11:10:27;7.53;;;3.63;;
12469;SDS011;36499;46.484;13.832;2023-11-19T11:12:59;3.30;;;2.07;;
12469;SDS011;36499;46.484;13.832;2023-11-19T11:15:30;6.23;;;3.50;;
12469;SDS011;36499;46.484;13.832;2023-11-19T11:17:59;8.77;;;4.40;;
12469;SDS011;36499;46.484;13.832;2023-11-19T11:20:27;12.70;;;5.87;;
12469;SDS011;36499;46.484;13.832;2023-11-19T11:22:59;8.60;;;4.67;;
12469;SDS011;36499;46.484;13.832;2023-11-19T11:25:43;6.17;;;3.33;;
12469;SDS011;36499;46.484;13.832;2023-11-19T11:28:22;10.47;;;5.87;;
12469;SDS011;36499;46.484;13.832;2023-11-19T11:31:05;18.43;;;8.60;;
12469;SDS011;36499;46.484;13.832;2023-11-19T11:33:41;3.90;;;2.60;;
12469;SDS011;36499;46.484;13.832;2023-11-19T11:36:28;5.50;;;3.40;;
12469;SDS011;36499;46.484;13.832;2023-11-19T11:39:03;2.57;;;2.00;;
12469;SDS011;36499;46.484;13.832;2023-11-19T11:41:32;12.87;;;8.37;;
12469;SDS011;36499;46.484;13.832;2023-11-19T11:43:59;9.60;;;6.83;;
12469;SDS011;36499;46.484;13.832;2023-11-19T11:49:27;9.07;;;7.07;;
12469;SDS011;36499;46.484;13.832;2023-11-19T11:51:59;4.57;;;3.10;;
12469;SDS011;36499;46.484;13.832;2023-11-19T11:54:30;4.90;;;2.10;;
12469;SDS011;36499;46.484;13.832;2023-11-19T11:57:04;1.20;;;1.00;;
12469;SDS011;36499;46.484;13.832;2023-11-19T11:59:37;1.40;;;1.00;;
12469;SDS011;36499;46.484;13.832;2023-11-19T12:02:13;1.17;;;1.00;;
12469;SDS011;36499;46.484;13.832;2023-11-19T12:04:41;1.87;;;0.90;;
12469;SDS011;36499;46.484;13.832;2023-11-19T12:07:09;0.73;;;0.73;;
12469;SDS011;36499;46.484;13.832;2023-11-19T12:09:39;3.07;;;0.83;;
12469;SDS011;36499;46.484;13.832;2023-11-19T12:12:07;1.93;;;0.90;;
12469;SDS011;36499;46.484;13.832;2023-11-19T12:17:43;1.47;;;0.70;;
12469;SDS011;36499;46.484;13.832;2023-11-19T12:20:14;0.87;;;0.60;;
12469;SDS011;36499;46.484;13.832;2023-11-19T12:22:42;0.77;;;0.77;;
12469;SDS011;36499;46.484;13.832;2023-11-19T12:25:10;3.27;;;1.00;;
12469;SDS011;36499;46.484;13.832;2023-11-19T12:27:39;1.50;;;1.20;;
12469;SDS011;36499;46.484;13.832;2023-11-19T12:30:06;0.87;;;0.73;;
12469;SDS011;36499;46.484;13.832;2023-11-19T12:32:40;0.90;;;0.70;;
12469;SDS011;36499;46.484;13.832;2023-11-19T12:35:09;1.00;;;0.80;;
12469;SDS011;36499;46.484;13.832;2023-11-19T12:37:40;2.50;;;0.80;;
12469;SDS011;36499;46.484;13.832;2023-11-19T12:40:14;0.90;;;0.60;;
12469;SDS011;36499;46.484;13.832;2023-11-19T12:42:42;0.57;;;0.57;;
12469;SDS011;36499;46.484;13.832;2023-11-19T12:45:09;3.73;;;0.60;;
12469;SDS011;36499;46.484;13.832;2023-11-19T12:47:37;1.83;;;0.77;;
12469;SDS011;36499;46.484;13.832;2023-11-19T12:50:04;1.70;;;0.60;;
12469;SDS011;36499;46.484;13.832;2023-11-19T12:52:34;0.90;;;0.57;;
12469;SDS011;36499;46.484;13.832;2023-11-19T12:55:01;0.70;;;0.70;;
12469;SDS011;36499;46.484;13.832;2023-11-19T12:57:38;3.07;;;0.80;;
12469;SDS011;36499;46.484;13.832;2023-11-19T13:00:06;0.67;;;0.60;;
12469;SDS011;36499;46.484;13.832;2023-11-19T13:02:44;1.30;;;0.70;;
12469;SDS011;36499;46.484;13.832;2023-11-19T13:05:25;0.87;;;0.47;;
12469;SDS011;36499;46.484;13.832;2023-11-19T13:08:02;0.73;;;0.70;;
12469;SDS011;36499;46.484;13.832;2023-11-19T13:10:30;1.33;;;0.60;;
12469;SDS011;36499;46.484;13.832;2023-11-19T13:13:01;1.73;;;0.73;;
12469;SDS011;36499;46.484;13.832;2023-11-19T13:15:31;1.27;;;0.97;;
12469;SDS011;36499;46.484;13.832;2023-11-19T13:17:58;0.60;;;0.60;;
12469;SDS011;36499;46.484;13.832;2023-11-19T13:20:25;1.40;;;0.77;;
12469;SDS011;36499;46.484;13.832;2023-11-19T13:22:56;3.17;;;0.70;;
12469;SDS011;36499;46.484;13.832;2023-11-19T13:25:24;1.33;;;0.80;;
12469;SDS011;36499;46.484;13.832;2023-11-19T13:27:51;1.03;;;0.83;;
12469;SDS011;36499;46.484;13.832;2023-11-19T13:30:18;1.33;;;0.80;;
12469;SDS011;36499;46.484;13.832;2023-11-19T13:32:46;0.40;;;0.40;;
12469;SDS011;36499;46.484;13.832;2023-11-19T13:35:13;0.60;;;0.60;;
12469;SDS011;36499;46.484;13.832;2023-11-19T13:37:40;0.40;;;0.40;;
12469;SDS011;36499;46.484;13.832;2023-11-19T13:40:07;1.00;;;0.70;;
12469;SDS011;36499;46.484;13.832;2023-11-19T13:42:36;1.27;;;0.50;;
12469;SDS011;36499;46.484;13.832;2023-11-19T13:45:06;0.63;;;0.60;;
12469;SDS011;36499;46.484;13.832;2023-11-19T13:47:36;2.13;;;0.70;;
12469;SDS011;36499;46.484;13.832;2023-11-19T13:50:06;0.50;;;0.50;;
12469;SDS011;36499;46.484;13.832;2023-11-19T13:52:34;0.63;;;0.63;;
12469;SDS011;36499;46.484;13.832;2023-11-19T13:55:02;2.63;;;0.80;;
12469;SDS011;36499;46.484;13.832;2023-11-19T13:57:30;0.70;;;0.67;;
12469;SDS011;36499;46.484;13.832;2023-11-19T13:59:58;0.57;;;0.57;;
12469;SDS011;36499;46.484;13.832;2023-11-19T14:02:25;1.60;;;0.60;;
12469;SDS011;36499;46.484;13.832;2023-11-19T14:04:51;5.87;;;1.30;;
12469;SDS011;36499;46.484;13.832;2023-11-19T14:07:18;2.10;;;1.90;;
12469;SDS011;36499;46.484;13.832;2023-11-19T14:09:45;33.47;;;16.20;;
12469;SDS011;36499;46.484;13.832;2023-11-19T14:12:12;2.30;;;1.33;;
12469;SDS011;36499;46.484;13.832;2023-11-19T14:14:39;0.60;;;0.60;;
12469;SDS011;36499;46.484;13.832;2023-11-19T14:17:08;0.73;;;0.70;;
12469;SDS011;36499;46.484;13.832;2023-11-19T14:19:36;0.80;;;0.80;;
12469;SDS011;36499;46.484;13.832;2023-11-19T14:22:03;9.87;;;4.87;;
12469;SDS011;36499;46.484;13.832;2023-11-19T14:24:30;11.17;;;6.03;;
12469;SDS011;36499;46.484;13.832;2023-11-19T14:26:57;14.40;;;8.10;;
12469;SDS011;36499;46.484;13.832;2023-11-19T14:29:24;39.97;;;20.93;;
12469;SDS011;36499;46.484;13.832;2023-11-19T14:31:52;2.47;;;1.67;;
12469;SDS011;36499;46.484;13.832;2023-11-19T14:34:20;19.07;;;10.50;;
12469;SDS011;36499;46.484;13.832;2023-11-19T14:36:47;20.57;;;10.30;;
12469;SDS011;36499;46.484;13.832;2023-11-19T14:39:14;18.20;;;9.50;;
12469;SDS011;36499;46.484;13.832;2023-11-19T14:41:42;14.57;;;8.87;;
12469;SDS011;36499;46.484;13.832;2023-11-19T14:44:09;20.27;;;11.43;;
12469;SDS011;36499;46.484;13.832;2023-11-19T14:46:36;30.93;;;16.07;;